Time;durP1;ratioP1;P1;durP2;ratioP2;P2;SDS_P1;SDS_P2;PMS_P1;PMS_P2;Temp;Humidity;BMP_temperature;BMP_pressure;BME280_temperature;BME280_humidity;BME280_pressure;Samples;Min_cycle;Max_cycle;Signal;HPM_P1;HPM_P2
2023/08/18 00:00:31;;;;;;;13.77;12.27;;;;;;;17.85;100.00;101586.34;5265482;28;20052;-77
2023/08/18 00:03:02;;;;;;;12.87;11.57;;;;;;;17.94;100.00;101597.53;5265081;28;20466;-76
2023/08/18 00:05:33;;;;;;;12.77;11.43;;;;;;;17.82;100.00;101591.69;5247577;28;20024;-77
2023/08/18 00:08:05;;;;;;;15.70;11.73;;;;;;;17.82;100.00;101590.81;5263984;28;20021;-77
2023/08/18 00:10:36;;;;;;;12.23;11.13;;;;;;;17.75;100.00;101589.28;5264877;28;20025;-77
2023/08/18 00:13:07;;;;;;;12.43;11.13;;;;;;;17.73;100.00;101586.69;5265420;28;20460;-77
2023/08/18 00:15:39;;;;;;;12.83;11.70;;;;;;;17.76;100.00;101588.34;5265891;28;20522;-76
2023/08/18 00:18:10;;;;;;;12.10;10.90;;;;;;;17.72;100.00;101586.75;5268442;28;20029;-77
2023/08/18 00:20:42;;;;;;;13.73;10.07;;;;;;;17.72;100.00;101584.97;5265106;28;20108;-76
2023/08/18 00:23:13;;;;;;;12.50;11.30;;;;;;;17.76;100.00;101586.59;5264702;28;20069;-77
2023/08/18 00:25:44;;;;;;;12.40;10.23;;;;;;;17.72;100.00;101581.47;5265339;28;20060;-76
2023/08/18 00:28:16;;;;;;;13.80;10.33;;;;;;;17.76;100.00;101583.97;5264948;28;20107;-77
2023/08/18 00:30:47;;;;;;;17.53;11.23;;;;;;;17.69;100.00;101577.13;5249416;28;20033;-78
2023/08/18 00:33:19;;;;;;;14.03;10.77;;;;;;;17.64;100.00;101579.91;5260559;28;20032;-76
2023/08/18 00:35:50;;;;;;;11.90;10.17;;;;;;;17.66;100.00;101580.75;5282183;28;20017;-76
2023/08/18 00:38:21;;;;;;;11.33;10.07;;;;;;;17.62;100.00;101575.59;5281649;28;20033;-78
2023/08/18 00:40:55;;;;;;;11.27;10.07;;;;;;;17.69;100.00;101569.22;5276659;28;20049;-77
2023/08/18 00:43:26;;;;;;;10.63;9.63;;;;;;;17.63;100.00;101567.66;5277270;28;20028;-76
2023/08/18 00:45:58;;;;;;;10.50;9.40;;;;;;;17.55;100.00;101571.41;5278408;28;20036;-76
2023/08/18 00:48:29;;;;;;;11.50;10.50;;;;;;;17.56;100.00;101574.00;5278769;28;20021;-76
2023/08/18 00:51:01;;;;;;;10.77;9.70;;;;;;;17.50;100.00;101575.06;5278044;28;20040;-76
2023/08/18 00:53:33;;;;;;;11.20;9.17;;;;;;;17.54;100.00;101575.81;5284163;28;20029;-75
2023/08/18 00:56:05;;;;;;;10.93;9.45;;;;;;;17.45;100.00;101576.09;5283963;28;20074;-75
2023/08/18 00:58:38;;;;;;;10.70;9.00;;;;;;;17.45;100.00;101576.97;5284183;28;20028;-75
2023/08/18 01:01:09;;;;;;;13.50;9.15;;;;;;;17.47;100.00;101574.28;5284579;28;20041;-77
2023/08/18 01:03:41;;;;;;;9.60;8.60;;;;;;;17.47;100.00;101569.88;5281518;28;20092;-77
2023/08/18 01:06:12;;;;;;;11.37;10.23;;;;;;;17.39;100.00;101571.88;5280430;28;20053;-76
2023/08/18 01:08:43;;;;;;;10.43;9.30;;;;;;;17.37;100.00;101571.06;5274149;28;20060;-77
2023/08/18 01:11:37;;;;;;;9.57;8.63;;;;;;;17.49;100.00;101567.19;5263267;28;20036;-77
2023/08/18 01:14:25;;;;;;;11.98;9.00;;;;;;;17.36;100.00;101566.69;5245798;28;20445;-77
2023/08/18 01:17:06;;;;;;;10.45;9.15;;;;;;;17.39;100.00;101577.13;5263267;28;20025;-76
2023/08/18 01:19:38;;;;;;;11.13;8.98;;;;;;;17.42;100.00;101577.06;5263260;28;20020;-77
2023/08/18 01:22:11;;;;;;;10.15;9.20;;;;;;;17.34;100.00;101575.53;5263412;28;20025;-77
2023/08/18 01:24:43;;;;;;;10.07;9.10;;;;;;;17.30;100.00;101561.59;5262845;28;20025;-77
2023/08/18 01:27:17;;;;;;;9.33;8.53;;;;;;;17.29;100.00;101559.84;5263558;28;20032;-77
2023/08/18 01:29:48;;;;;;;9.88;8.82;;;;;;;17.28;100.00;101550.22;5264039;28;20036;-77
2023/08/18 01:32:21;;;;;;;11.70;8.80;;;;;;;17.35;100.00;101546.50;5263827;28;20025;-77
2023/08/18 01:34:52;;;;;;;9.85;8.68;;;;;;;17.30;100.00;101553.69;5264368;28;20031;-77
2023/08/18 01:37:25;;;;;;;11.80;8.75;;;;;;;17.31;100.00;101547.50;5263820;28;20025;-76
2023/08/18 01:39:59;;;;;;;9.95;9.05;;;;;;;17.30;100.00;101545.78;5265552;28;20396;-76
2023/08/18 01:42:30;;;;;;;11.35;9.20;;;;;;;17.25;100.00;101529.25;5263906;28;20087;-76
2023/08/18 01:45:03;;;;;;;9.33;8.30;;;;;;;17.26;100.00;101528.34;5263149;28;20457;-76
2023/08/18 01:47:34;;;;;;;10.32;9.32;;;;;;;17.25;100.00;101529.25;5263032;28;20036;-77
2023/08/18 01:50:06;;;;;;;10.07;9.13;;;;;;;17.16;100.00;101532.97;5263024;28;20025;-77
2023/08/18 01:52:37;;;;;;;14.30;8.57;;;;;;;17.18;100.00;101540.84;5262681;28;20032;-76
2023/08/18 01:55:09;;;;;;;9.97;9.00;;;;;;;17.14;100.00;101543.56;5262394;28;20040;-77
2023/08/18 01:57:40;;;;;;;11.13;10.03;;;;;;;17.16;100.00;101530.34;5262629;28;20029;-77
2023/08/18 02:00:11;;;;;;;11.37;9.27;;;;;;;17.15;100.00;101531.28;5263290;28;20107;-77
2023/08/18 02:02:43;;;;;;;11.00;9.13;;;;;;;17.12;100.00;101518.19;5262938;28;20086;-76
2023/08/18 02:05:14;;;;;;;11.50;9.33;;;;;;;17.10;100.00;101518.22;5262939;28;20471;-77
2023/08/18 02:07:45;;;;;;;10.07;8.53;;;;;;;17.18;100.00;101515.38;5262857;28;20029;-76
2023/08/18 02:10:20;;;;;;;10.00;8.97;;;;;;;17.07;100.00;101514.81;5269506;28;20530;-78
2023/08/18 02:12:51;;;;;;;10.90;9.40;;;;;;;17.17;100.00;101518.91;5270073;28;20110;-78
2023/08/18 02:15:23;;;;;;;11.93;10.30;;;;;;;17.16;100.00;101522.44;5269943;28;20037;-76
2023/08/18 02:17:54;;;;;;;11.87;9.83;;;;;;;17.11;100.00;101522.59;5270038;28;20028;-76
2023/08/18 02:20:25;;;;;;;11.13;10.13;;;;;;;17.07;100.00;101523.59;5269756;28;20479;-75
2023/08/18 02:22:57;;;;;;;11.10;9.47;;;;;;;17.03;100.00;101521.06;5264249;28;20029;-78
2023/08/18 02:25:29;;;;;;;11.73;10.30;;;;;;;17.01;100.00;101528.16;5267538;28;20084;-76
2023/08/18 02:28:00;;;;;;;12.25;10.95;;;;;;;17.04;100.00;101523.66;5269534;28;20036;-76
2023/08/18 02:30:31;;;;;;;10.77;9.77;;;;;;;16.99;100.00;101516.81;5270589;28;20041;-77
2023/08/18 02:33:03;;;;;;;11.43;10.20;;;;;;;17.04;100.00;101523.66;5273816;28;20048;-76
2023/08/18 02:35:34;;;;;;;10.90;9.43;;;;;;;17.04;100.00;101522.81;5273370;28;20021;-77
2023/08/18 02:38:09;;;;;;;12.70;10.33;;;;;;;16.98;100.00;101517.72;5272815;28;20259;-76
2023/08/18 02:40:40;;;;;;;11.43;9.80;;;;;;;16.94;100.00;101509.88;5272716;28;20049;-79
2023/08/18 02:43:12;;;;;;;10.40;9.40;;;;;;;16.98;100.00;101510.66;5271759;28;20029;-77
2023/08/18 02:45:43;;;;;;;11.13;10.13;;;;;;;16.98;100.00;101509.81;5270338;28;20029;-77
2023/08/18 02:48:16;;;;;;;10.87;9.87;;;;;;;17.02;100.00;101514.09;5269299;28;20388;-77
2023/08/18 02:50:47;;;;;;;15.07;10.70;;;;;;;16.96;100.00;101520.38;5267419;28;20025;-77
2023/08/18 02:53:19;;;;;;;11.63;10.43;;;;;;;16.95;100.00;101513.38;5266043;28;20055;-77
2023/08/18 02:55:50;;;;;;;13.27;10.87;;;;;;;16.95;100.00;101516.00;5266657;28;20039;-77
2023/08/18 02:58:22;;;;;;;13.87;10.73;;;;;;;16.87;100.00;101510.09;5266795;28;20025;-78
2023/08/18 03:00:55;;;;;;;11.93;10.83;;;;;;;16.90;100.00;101508.22;5248635;28;20056;-77
2023/08/18 03:03:26;;;;;;;12.32;10.65;;;;;;;16.85;100.00;101507.50;5266305;28;20373;-77
2023/08/18 03:06:02;;;;;;;13.57;10.97;;;;;;;16.82;100.00;101507.56;5266415;28;20032;-77
2023/08/18 03:08:35;;;;;;;11.88;10.70;;;;;;;16.88;100.00;101512.69;5266018;28;20029;-76
2023/08/18 03:11:07;;;;;;;16.33;10.45;;;;;;;16.83;100.00;101508.44;5266145;28;20044;-75
2023/08/18 03:13:39;;;;;;;11.43;10.25;;;;;;;16.85;100.00;101503.97;5266035;28;20037;-77
2023/08/18 03:16:10;;;;;;;11.67;10.67;;;;;;;16.89;100.00;101497.78;5231691;28;20182;-77
2023/08/18 03:18:42;;;;;;;12.77;11.57;;;;;;;16.85;100.00;101506.63;5265813;28;20020;-76
2023/08/18 03:21:13;;;;;;;12.80;11.60;;;;;;;16.85;100.00;101501.34;5265461;28;20511;-76
2023/08/18 03:23:44;;;;;;;12.00;10.77;;;;;;;16.84;100.00;101507.50;5265508;28;20025;-77
2023/08/18 03:26:16;;;;;;;12.23;11.00;;;;;;;16.75;100.00;101512.13;5265768;28;20056;-75
2023/08/18 03:28:47;;;;;;;12.57;11.37;;;;;;;16.71;100.00;101515.75;5265364;28;20029;-77
2023/08/18 03:31:18;;;;;;;12.93;11.67;;;;;;;16.80;100.00;101508.53;5265882;28;20021;-76
2023/08/18 03:33:50;;;;;;;12.80;11.47;;;;;;;16.78;100.00;101505.94;5247850;28;20255;-76
2023/08/18 03:36:21;;;;;;;12.30;11.10;;;;;;;16.76;100.00;101503.34;5247411;28;20356;-76
2023/08/18 03:38:52;;;;;;;14.53;12.30;;;;;;;16.68;100.00;101502.69;5265045;28;20028;-76
2023/08/18 03:41:24;;;;;;;12.77;11.47;;;;;;;16.72;100.00;101495.56;5265401;28;20400;-76
2023/08/18 03:43:56;;;;;;;13.88;12.07;;;;;;;16.73;100.00;101510.47;5265108;28;20155;-76
2023/08/18 03:46:27;;;;;;;13.20;11.90;;;;;;;16.67;100.00;101500.94;5264977;28;20126;-77
2023/08/18 03:48:59;;;;;;;14.35;12.95;;;;;;;16.59;100.00;101509.03;5247279;28;20334;-76
2023/08/18 03:51:30;;;;;;;14.55;13.15;;;;;;;16.57;100.00;101499.47;5265194;28;20021;-76
2023/08/18 03:54:03;;;;;;;12.97;11.70;;;;;;;16.54;100.00;101503.03;5264811;28;20175;-76
2023/08/18 03:56:34;;;;;;;15.30;13.10;;;;;;;16.57;100.00;101496.84;5264990;28;20456;-77
2023/08/18 03:59:05;;;;;;;15.47;13.43;;;;;;;16.50;100.00;101504.03;5265105;28;20105;-78
2023/08/18 04:01:37;;;;;;;14.50;13.10;;;;;;;16.51;100.00;101504.88;5265026;28;20408;-77
2023/08/18 04:04:08;;;;;;;14.50;13.10;;;;;;;16.47;100.00;101500.59;5264960;28;20031;-77
2023/08/18 04:06:39;;;;;;;14.20;12.83;;;;;;;16.46;100.00;101497.13;5264897;28;20040;-77
2023/08/18 04:09:15;;;;;;;15.40;13.33;;;;;;;16.53;100.00;101498.66;5264490;28;20056;-77
2023/08/18 04:11:48;;;;;;;14.38;12.98;;;;;;;16.49;100.00;101501.44;5264703;28;20029;-77
2023/08/18 04:14:19;;;;;;;14.98;13.32;;;;;;;16.46;100.00;101507.63;5264386;28;20163;-76
2023/08/18 04:16:51;;;;;;;14.90;13.40;;;;;;;16.50;100.00;101513.69;5246550;28;20044;-76
2023/08/18 04:19:22;;;;;;;16.87;13.80;;;;;;;16.46;100.00;101505.00;5264738;28;20025;-76
2023/08/18 04:21:54;;;;;;;14.37;12.87;;;;;;;16.47;100.00;101506.75;5264527;28;20032;-76
2023/08/18 04:24:25;;;;;;;14.23;12.87;;;;;;;16.53;100.00;101492.53;5264148;28;20086;-76
2023/08/18 04:26:59;;;;;;;14.03;12.60;;;;;;;16.47;100.00;101485.69;5264407;28;20480;-76
2023/08/18 04:29:31;;;;;;;16.08;14.38;;;;;;;16.45;100.00;101494.50;5264526;28;20032;-76
2023/08/18 04:32:04;;;;;;;16.40;13.63;;;;;;;16.43;100.00;101491.06;5264436;28;20024;-76
2023/08/18 04:34:35;;;;;;;15.60;14.00;;;;;;;16.44;100.00;101485.78;5264267;28;20036;-75
2023/08/18 04:37:07;;;;;;;15.95;14.25;;;;;;;16.44;100.00;101488.41;5263863;28;20029;-76
2023/08/18 04:39:38;;;;;;;18.23;14.53;;;;;;;16.47;100.00;101482.19;5246151;28;20479;-76
2023/08/18 04:42:09;;;;;;;16.53;14.37;;;;;;;16.46;100.00;101489.22;5264222;28;20033;-77
2023/08/18 04:44:41;;;;;;;14.00;12.57;;;;;;;16.49;100.00;101488.28;5264188;28;20142;-77
2023/08/18 04:47:12;;;;;;;14.03;12.63;;;;;;;16.46;100.00;101485.72;5264056;28;20043;-76
2023/08/18 04:49:44;;;;;;;15.80;14.13;;;;;;;16.46;100.00;101494.47;5263692;28;20167;-77
2023/08/18 04:52:15;;;;;;;15.27;13.63;;;;;;;16.50;100.00;101501.41;5264066;28;20435;-77
2023/08/18 04:54:46;;;;;;;15.90;14.03;;;;;;;16.49;100.00;101498.81;5244900;28;20019;-77
2023/08/18 04:57:18;;;;;;;17.13;13.40;;;;;;;16.52;100.00;101493.47;5263767;28;20587;-77
2023/08/18 04:59:49;;;;;;;15.87;13.37;;;;;;;16.59;100.00;101497.66;5263859;28;20104;-76
2023/08/18 05:02:21;;;;;;;15.67;14.07;;;;;;;16.59;100.00;101502.91;5245810;28;20033;-77
2023/08/18 05:04:52;;;;;;;16.43;13.27;;;;;;;16.61;100.00;101502.88;5263670;28;20025;-76
2023/08/18 05:07:24;;;;;;;14.83;12.10;;;;;;;16.56;100.00;101493.31;5263514;28;20029;-77
2023/08/18 05:09:55;;;;;;;15.50;12.77;;;;;;;16.69;100.00;101496.50;5263603;28;20460;-77
2023/08/18 05:12:27;;;;;;;15.30;13.70;;;;;;;16.71;100.00;101496.44;5263643;28;20474;-75
2023/08/18 05:14:58;;;;;;;15.83;12.73;;;;;;;16.73;100.00;101492.88;5263418;28;20108;-77
2023/08/18 05:17:29;;;;;;;18.23;14.30;;;;;;;16.73;100.00;101489.41;5245358;28;20440;-77
2023/08/18 05:20:01;;;;;;;14.77;13.20;;;;;;;16.72;100.00;101485.88;5263415;28;20361;-78
2023/08/18 05:22:32;;;;;;;15.47;12.67;;;;;;;16.80;100.00;101480.41;5263224;28;20444;-77
2023/08/18 05:25:04;;;;;;;16.63;12.93;;;;;;;16.90;100.00;101481.03;5262473;28;20044;-77
2023/08/18 05:27:36;;;;;;;15.52;12.70;;;;;;;16.88;100.00;101477.59;5263121;28;20033;-77
2023/08/18 05:30:08;;;;;;;16.48;13.02;;;;;;;16.86;100.00;101487.31;5263180;28;20388;-77
2023/08/18 05:32:40;;;;;;;18.75;13.70;;;;;;;16.98;100.00;101479.06;5263007;28;20041;-79
2023/08/18 05:35:11;;;;;;;17.60;14.97;;;;;;;16.97;100.00;101479.09;5262814;28;20139;-76
2023/08/18 05:37:42;;;;;;;21.23;16.47;;;;;;;17.01;100.00;101476.34;5245145;28;20033;-77
2023/08/18 05:40:14;;;;;;;17.03;15.33;;;;;;;17.12;100.00;101473.41;5253134;28;20400;-78
2023/08/18 05:42:45;;;;;;;17.70;15.87;;;;;;;17.12;100.00;101474.25;5283570;28;20056;-77
2023/08/18 05:45:17;;;;;;;18.03;16.23;;;;;;;17.26;100.00;101486.19;5283332;28;20047;-78
2023/08/18 05:47:48;;;;;;;18.02;16.13;;;;;;;17.23;100.00;101481.84;5282490;28;20035;-77
2023/08/18 05:50:20;;;;;;;16.17;14.47;;;;;;;17.28;100.00;101487.00;5283390;28;20078;-77
2023/08/18 05:52:51;;;;;;;17.63;15.37;;;;;;;17.20;100.00;101489.00;5282275;28;20494;-77
2023/08/18 05:55:23;;;;;;;16.80;15.03;;;;;;;17.22;100.00;101489.81;5281919;28;20036;-78
2023/08/18 05:58:00;;;;;;;16.90;15.02;;;;;;;17.28;100.00;101479.09;5283146;28;20028;-77
2023/08/18 06:00:31;;;;;;;17.98;15.77;;;;;;;17.20;100.00;101489.84;5283551;28;20437;-77
2023/08/18 06:03:03;;;;;;;17.93;16.23;;;;;;;17.20;100.00;101489.84;5283421;28;20032;-77
2023/08/18 06:05:34;;;;;;;16.10;14.60;;;;;;;17.33;100.00;101489.50;5281723;28;20107;-76
2023/08/18 06:08:06;;;;;;;18.47;16.57;;;;;;;17.27;100.00;101499.28;5281194;28;20036;-77
2023/08/18 06:10:37;;;;;;;17.53;15.83;;;;;;;17.18;100.00;101491.66;5283220;28;20414;-76
2023/08/18 06:13:09;;;;;;;17.20;15.40;;;;;;;17.17;100.00;101496.97;5278010;28;20024;-76
2023/08/18 06:15:42;;;;;;;18.35;15.93;;;;;;;17.10;100.00;101499.78;5281134;28;20157;-76
2023/08/18 06:18:14;;;;;;;17.25;15.55;;;;;;;17.15;100.00;101497.03;5292250;28;20124;-76
2023/08/18 06:20:46;;;;;;;18.07;16.27;;;;;;;17.08;100.00;101498.97;5302364;28;20131;-75
2023/08/18 06:23:17;;;;;;;18.63;16.73;;;;;;;17.09;100.00;101499.84;5302492;28;20468;-75
2023/08/18 06:25:48;;;;;;;19.37;16.40;;;;;;;17.05;100.00;101496.44;5303015;28;20034;-76
2023/08/18 06:28:20;;;;;;;20.47;18.40;;;;;;;17.09;100.00;101499.84;5298489;28;20028;-76
2023/08/18 06:30:51;;;;;;;20.07;17.87;;;;;;;17.12;100.00;101491.84;5287692;28;20044;-76
2023/08/18 06:33:23;;;;;;;19.87;17.77;;;;;;;17.17;100.00;101486.44;5279167;28;20102;-76
2023/08/18 06:35:54;;;;;;;20.80;18.77;;;;;;;17.16;100.00;101484.72;5282382;28;20071;-76
2023/08/18 06:38:25;;;;;;;19.00;16.90;;;;;;;17.26;100.00;101487.03;5281719;28;20029;-76
2023/08/18 06:40:57;;;;;;;21.27;19.10;;;;;;;17.22;100.00;101490.66;5271061;28;20064;-77
2023/08/18 06:43:28;;;;;;;22.90;20.07;;;;;;;17.33;100.00;101481.59;5261092;28;20041;-77
2023/08/18 06:45:59;;;;;;;20.20;18.20;;;;;;;17.35;100.00;101483.25;5262339;28;20029;-77
2023/08/18 06:48:32;;;;;;;21.70;19.58;;;;;;;17.38;100.00;101485.78;5262375;28;20053;-77
2023/08/18 06:51:03;;;;;;;21.87;19.50;;;;;;;17.49;100.00;101488.13;5263179;28;20087;-77
2023/08/18 06:53:34;;;;;;;21.73;19.53;;;;;;;17.54;100.00;101486.19;5262193;28;20111;-78
2023/08/18 06:56:06;;;;;;;20.73;18.70;;;;;;;17.63;100.00;101479.78;5245897;28;20061;-77
2023/08/18 06:58:37;;;;;;;20.57;18.43;;;;;;;17.75;100.00;101478.53;5263189;28;20271;-79
2023/08/18 07:01:09;;;;;;;21.07;18.93;;;;;;;17.88;100.00;101477.25;5262541;28;20033;-77
2023/08/18 07:03:40;;;;;;;22.37;19.20;;;;;;;17.90;100.00;101479.84;5262377;28;20103;-77
2023/08/18 07:06:11;;;;;;;21.53;19.30;;;;;;;18.02;100.00;101475.03;5262284;28;20055;-78
2023/08/18 07:08:43;;;;;;;20.63;18.53;;;;;;;18.02;100.00;101471.53;5245063;28;20033;-78
2023/08/18 07:11:14;;;;;;;18.80;16.83;;;;;;;18.09;100.00;101470.41;5262543;28;20033;-77
2023/08/18 07:13:46;;;;;;;20.50;18.47;;;;;;;18.08;100.00;101468.72;5262428;28;20423;-78
2023/08/18 07:16:17;;;;;;;20.30;18.30;;;;;;;18.09;100.00;101465.13;5262092;28;20829;-77
2023/08/18 07:18:48;;;;;;;21.00;18.50;;;;;;;18.10;100.00;101464.22;5264719;28;20025;-77
2023/08/18 07:21:20;;;;;;;20.40;18.20;;;;;;;18.00;100.00;101462.78;5265699;28;20087;-77
2023/08/18 07:23:51;;;;;;;20.97;18.80;;;;;;;18.11;100.00;101465.09;5230935;28;20068;-78
2023/08/18 07:26:22;;;;;;;19.53;17.57;;;;;;;18.36;100.00;101473.03;5265508;28;20156;-77
2023/08/18 07:28:54;;;;;;;21.53;19.43;;;;;;;18.29;100.00;101469.75;5265545;28;20183;-77
2023/08/18 07:31:25;;;;;;;21.47;19.27;;;;;;;18.14;100.00;101470.25;5247940;28;20037;-77
2023/08/18 07:33:57;;;;;;;22.83;17.93;;;;;;;18.26;100.00;101479.53;5265661;28;20495;-77
2023/08/18 07:36:29;;;;;;;20.00;18.05;;;;;;;18.41;100.00;101479.88;5265629;28;20078;-78
2023/08/18 07:39:01;;;;;;;20.00;18.00;;;;;;;18.46;100.00;101485.00;5265696;28;20683;-77
2023/08/18 07:41:32;;;;;;;18.37;16.73;;;;;;;18.40;100.00;101472.00;5265203;28;20053;-76
2023/08/18 07:44:04;;;;;;;21.47;19.20;;;;;;;18.43;100.00;101471.91;5265700;28;20294;-77
2023/08/18 07:46:35;;;;;;;21.42;19.33;;;;;;;18.41;100.00;101476.38;5265318;28;20036;-77
2023/08/18 07:49:07;;;;;;;20.40;18.40;;;;;;;18.48;100.00;101467.34;5265152;28;20044;-77
2023/08/18 07:51:39;;;;;;;20.30;18.20;;;;;;;18.54;100.00;101475.03;5265560;28;20033;-77
2023/08/18 07:54:10;;;;;;;19.05;17.25;;;;;;;18.57;100.00;101479.34;5263321;28;20029;-77
2023/08/18 07:56:42;;;;;;;19.83;17.90;;;;;;;18.51;100.00;101487.47;5264656;28;20025;-77
2023/08/18 07:59:13;;;;;;;19.83;18.03;;;;;;;18.38;100.00;101484.41;5263913;28;20067;-77
2023/08/18 08:01:45;;;;;;;20.07;18.07;;;;;;;18.47;100.00;101492.00;5246955;28;20054;-77
2023/08/18 08:04:16;;;;;;;19.40;17.57;;;;;;;18.66;100.00;101488.72;5264016;28;20276;-76
2023/08/18 08:06:49;;;;;;;21.70;18.00;;;;;;;18.68;100.00;101487.75;5264686;28;20114;-76
2023/08/18 08:09:21;;;;;;;21.60;19.52;;;;;;;18.77;100.00;101489.19;5263859;28;20065;-76
2023/08/18 08:11:52;;;;;;;22.07;19.93;;;;;;;18.91;100.00;101488.72;5264780;28;20069;-77
2023/08/18 08:14:24;;;;;;;20.67;18.58;;;;;;;18.90;100.00;101487.88;5264024;28;20055;-77
2023/08/18 08:16:55;;;;;;;21.00;18.90;;;;;;;18.91;100.00;101491.38;5264654;28;20036;-76
2023/08/18 08:19:27;;;;;;;26.40;21.17;;;;;;;18.90;100.00;101482.59;5263987;28;20033;-77
2023/08/18 08:21:58;;;;;;;21.97;19.97;;;;;;;18.94;100.00;101500.03;5264258;28;20488;-77
2023/08/18 08:24:30;;;;;;;21.77;19.63;;;;;;;18.99;100.00;101493.75;5263202;28;20484;-76
2023/08/18 08:27:02;;;;;;;;;;;;;;;19.38;100.00;101496.66;5246886;28;20059;-77
2023/08/18 08:29:33;;;;;;;21.60;19.40;;;;;;;19.11;100.00;101493.28;5263235;28;20007;-77
2023/08/18 08:32:05;;;;;;;21.40;19.40;;;;;;;19.06;100.00;101497.88;5264764;28;20457;-77
2023/08/18 08:34:40;;;;;;;22.07;19.80;;;;;;;19.05;100.00;101496.16;5245427;28;20029;-77
2023/08/18 08:37:11;;;;;;;20.58;18.45;;;;;;;19.05;100.00;101501.44;5264061;28;20120;-78
2023/08/18 08:39:42;;;;;;;20.20;18.10;;;;;;;19.13;99.93;101507.31;5263181;28;20115;-78
2023/08/18 08:42:14;;;;;;;18.70;16.77;;;;;;;19.11;99.34;101506.47;5263834;28;20052;-77
2023/08/18 08:44:45;;;;;;;21.23;18.03;;;;;;;19.08;99.30;101511.91;5263269;28;20075;-77
2023/08/18 08:47:18;;;;;;;19.80;17.93;;;;;;;19.00;99.15;101520.13;5263858;28;20041;-77
2023/08/18 08:49:59;;;;;;;18.58;16.65;;;;;;;19.14;99.58;101522.22;5263247;28;20057;-77
2023/08/18 08:52:39;;;;;;;17.23;15.52;;;;;;;19.25;99.77;101517.41;5264063;28;20134;-76
2023/08/18 08:55:13;;;;;;;18.25;16.40;;;;;;;19.30;98.69;101518.13;5262275;28;20025;-77
2023/08/18 08:57:45;;;;;;;18.48;16.77;;;;;;;19.39;98.24;101513.41;5259894;28;20029;-77
2023/08/18 09:00:17;;;;;;;19.60;17.70;;;;;;;19.46;97.66;101520.16;5247463;28;20033;-76
2023/08/18 09:02:48;;;;;;;19.38;17.58;;;;;;;19.49;96.54;101517.41;5262814;28;20456;-77
2023/08/18 09:05:20;;;;;;;18.47;16.60;;;;;;;19.57;96.77;101525.91;5277414;28;20044;-78
2023/08/18 09:07:52;;;;;;;18.77;16.92;;;;;;;19.77;96.35;101522.53;5284156;28;20115;-77
2023/08/18 09:10:25;;;;;;;17.47;15.80;;;;;;;19.91;95.46;101529.88;5283344;28;20108;-78
2023/08/18 09:12:57;;;;;;;19.15;17.15;;;;;;;19.98;94.29;101522.56;5282367;28;20417;-77
2023/08/18 09:15:28;;;;;;;18.50;16.80;;;;;;;19.90;94.35;101525.53;5282976;28;20060;-76
2023/08/18 09:18:03;;;;;;;18.73;16.93;;;;;;;20.06;96.14;101519.59;5263697;28;20033;-77
2023/08/18 09:20:35;;;;;;;19.80;18.00;;;;;;;20.06;94.14;101527.56;5261237;28;20029;-77
2023/08/18 09:23:06;;;;;;;19.10;17.30;;;;;;;20.13;94.10;101515.81;5262728;28;20029;-76
2023/08/18 09:25:37;;;;;;;17.23;15.47;;;;;;;20.27;94.56;101505.50;5261572;28;20036;-76
2023/08/18 09:28:09;;;;;;;20.13;16.50;;;;;;;20.49;92.89;101508.06;5261542;28;20037;-77
2023/08/18 09:30:40;;;;;;;18.20;16.40;;;;;;;20.70;93.21;101498.38;5262626;28;20025;-77
2023/08/18 09:33:12;;;;;;;18.50;16.73;;;;;;;20.79;91.30;101496.28;5245689;28;20033;-77
2023/08/18 09:35:43;;;;;;;18.00;16.10;;;;;;;20.79;91.09;101496.28;5263263;28;20112;-76
2023/08/18 09:38:15;;;;;;;19.83;18.03;;;;;;;20.93;90.26;101501.81;5264257;28;20522;-77
2023/08/18 09:40:54;;;;;;;19.80;17.90;;;;;;;20.94;91.10;101503.50;5261717;28;20045;-77
2023/08/18 09:43:25;;;;;;;21.27;18.33;;;;;;;20.72;89.71;101503.59;5240693;28;20048;-77
2023/08/18 09:45:57;;;;;;;18.30;16.58;;;;;;;21.10;90.54;101499.22;5264516;28;20495;-77
2023/08/18 09:48:37;;;;;;;17.40;15.70;;;;;;;21.13;89.46;101500.91;5262859;28;20029;-77
2023/08/18 09:51:11;;;;;;;21.05;18.95;;;;;;;21.03;88.32;101500.47;5281072;28;20020;-76
2023/08/18 09:53:55;;;;;;;21.23;19.35;;;;;;;21.18;88.71;101506.84;5281950;28;20500;-77
2023/08/18 09:56:35;;;;;;;21.23;19.40;;;;;;;21.30;87.64;101503.63;5282612;28;20024;-77
2023/08/18 09:59:06;;;;;;;21.23;19.35;;;;;;;21.36;87.40;101488.38;5263092;28;20024;-77
2023/08/18 10:01:38;;;;;;;20.93;19.03;;;;;;;21.38;85.99;101494.44;5277045;28;20036;-76
2023/08/18 10:04:10;;;;;;;20.40;18.30;;;;;;;21.57;87.03;101497.13;5261247;28;20052;-78
2023/08/18 10:06:44;;;;;;;24.17;21.77;;;;;;;21.64;85.59;101502.06;5261300;28;20033;-78
2023/08/18 10:09:16;;;;;;;24.80;22.45;;;;;;;21.47;85.75;101497.53;5261599;28;20052;-77
2023/08/18 10:11:49;;;;;;;24.60;22.33;;;;;;;21.56;85.74;101500.69;5261673;28;20113;-78
2023/08/18 10:14:22;;;;;;;24.35;22.23;;;;;;;21.72;85.56;101487.56;5259592;28;20388;-78
2023/08/18 10:16:54;;;;;;;25.20;22.92;;;;;;;21.94;84.76;101477.63;5261973;28;20033;-77
2023/08/18 10:19:46;;;;;;;23.55;21.20;;;;;;;22.06;85.22;101481.47;5260827;28;20044;-77
2023/08/18 10:22:19;;;;;;;24.15;21.95;;;;;;;22.02;82.64;101474.59;5263015;28;20028;-78
2023/08/18 10:24:52;;;;;;;22.52;20.50;;;;;;;22.20;83.39;101478.97;5266972;28;20063;-78
2023/08/18 10:27:26;;;;;;;24.48;22.38;;;;;;;22.25;81.66;101477.88;5276884;28;20040;-78
2023/08/18 10:30:02;;;;;;;24.77;22.45;;;;;;;22.67;82.22;101464.22;5260996;28;20025;-78
2023/08/18 10:32:34;;;;;;;22.23;20.25;;;;;;;23.01;79.69;101464.19;5261871;28;20078;-77
2023/08/18 10:35:23;;;;;;;24.30;21.92;;;;;;;23.28;80.72;101464.50;5259740;28;20029;-77
2023/08/18 10:38:00;;;;;;;22.55;20.35;;;;;;;23.09;79.86;101473.50;5275479;28;20031;-76
2023/08/18 10:40:34;;;;;;;22.83;20.83;;;;;;;23.22;77.08;101470.19;5280496;28;20048;-77
2023/08/18 10:43:11;;;;;;;21.67;19.75;;;;;;;23.05;78.33;101471.06;5282381;28;20029;-77
2023/08/18 10:45:48;;;;;;;22.40;20.50;;;;;;;23.22;77.50;101460.38;5281874;28;20596;-78
2023/08/18 10:48:19;;;;;;;20.33;18.48;;;;;;;23.34;77.30;101455.31;5281075;28;20446;-77
2023/08/18 10:50:51;;;;;;;22.13;19.97;;;;;;;23.45;76.22;101461.75;5281372;28;20036;-77
2023/08/18 10:53:22;;;;;;;21.30;19.50;;;;;;;23.30;77.77;101458.16;5284818;28;20052;-77
2023/08/18 10:55:53;;;;;;;20.53;18.63;;;;;;;23.56;77.55;101455.81;5285936;28;20028;-77
2023/08/18 10:58:25;;;;;;;20.27;18.23;;;;;;;23.71;77.64;101445.25;5252410;28;20033;-78
2023/08/18 11:00:57;;;;;;;19.92;17.92;;;;;;;23.93;75.14;101443.09;5286014;28;20325;-77
2023/08/18 11:03:28;;;;;;;19.92;18.05;;;;;;;24.23;77.03;101434.25;5286973;28;20036;-77
2023/08/18 11:06:00;;;;;;;20.52;18.60;;;;;;;24.52;73.45;101431.56;5285926;28;20047;-77
2023/08/18 11:08:31;;;;;;;20.77;18.85;;;;;;;24.83;71.79;101429.72;5269037;28;20036;-77
2023/08/18 11:11:03;;;;;;;20.87;18.97;;;;;;;24.93;68.54;101436.19;5286453;28;20029;-76
2023/08/18 11:13:36;;;;;;;19.77;18.07;;;;;;;25.51;68.20;101428.94;5268294;28;20029;-77
2023/08/18 11:16:08;;;;;;;18.73;17.02;;;;;;;25.84;66.65;101427.63;5286361;28;20290;-77
2023/08/18 11:18:42;;;;;;;18.88;17.27;;;;;;;26.10;66.12;101423.25;5267871;28;20032;-77
2023/08/18 11:21:14;;;;;;;19.67;17.85;;;;;;;26.13;66.76;101422.16;5286402;28;20039;-77
2023/08/18 11:23:46;;;;;;;21.48;19.67;;;;;;;26.13;65.48;101416.81;5285366;28;20036;-78
2023/08/18 11:26:17;;;;;;;21.05;19.15;;;;;;;26.61;63.61;101422.38;5286348;28;20541;-78